Weather at Menara Airport

Public forecast

Using degrees Celsius for public forecast. Weather courtesy of forecast.io.

Current aviation weather report (METAR) for Menara Airport

Report is more than 2 hours old.

2024/06/18 22:30 (retrieved 5 hours ago)

GMMX 182230Z 30008KT CAVOK 21/15 Q1019 NOSIG

Closest aviation forecast (TAF) to Menara Airport

Forecast is more than 6 hours old.

Closest forecast is Oujda Angads Airport, 361.5 nm (669.5 km) ENE.

2024/06/18 18:36 (retrieved 9 hours ago)

TAF TAF GMFO 181700Z 1818/1924 36014KT CAVOK BECMG 1908/1911 06012KT 9999 SCT026 SCT100